Time;durP1;ratioP1;P1;durP2;ratioP2;P2;SDS_P1;SDS_P2;PMS_P1;PMS_P2;Temp;Humidity;BMP_temperature;BMP_pressure;BME280_temperature;BME280_humidity;BME280_pressure;Samples;Min_cycle;Max_cycle;Signal;HPM_P1;HPM_P2
2022/09/08 00:00:15;;;;;;;94.03;88.80;;;19.10;99.90;;;;;;5031672;28;20215;-75
2022/09/08 00:02:41;;;;;;;53.37;50.27;;;19.00;99.90;;;;;;5030241;28;20183;-76
2022/09/08 00:05:08;;;;;;;27.20;25.50;;;19.00;99.90;;;;;;5030603;28;20248;-75
2022/09/08 00:07:35;;;;;;;43.53;40.97;;;18.90;99.90;;;;;;5030757;28;20270;-76
2022/09/08 00:10:02;;;;;;;47.97;45.57;;;18.90;99.90;;;;;;5030448;28;20705;-76
2022/09/08 00:12:29;;;;;;;32.30;30.33;;;18.80;99.90;;;;;;5030234;28;20206;-76
2022/09/08 00:14:56;;;;;;;23.37;21.97;;;18.90;99.90;;;;;;5030354;28;20244;-75
2022/09/08 00:17:22;;;;;;;41.70;39.40;;;18.90;99.90;;;;;;5029122;28;20183;-75
2022/09/08 00:19:48;;;;;;;37.27;35.13;;;18.90;99.90;;;;;;5030124;28;20194;-76
2022/09/08 00:22:14;;;;;;;39.80;37.57;;;18.90;99.90;;;;;;5031329;28;20205;-76
2022/09/08 00:24:40;;;;;;;23.57;22.27;;;18.90;99.90;;;;;;5031500;28;20561;-76
2022/09/08 00:27:06;;;;;;;24.27;22.77;;;18.80;99.90;;;;;;5030620;28;20187;-76
2022/09/08 00:29:33;;;;;;;48.57;45.63;;;18.80;99.90;;;;;;5031315;28;20293;-76
2022/09/08 00:31:59;;;;;;;78.87;74.63;;;18.70;99.90;;;;;;5031096;28;20195;-76
2022/09/08 00:34:25;;;;;;;72.17;68.07;;;18.70;99.90;;;;;;5031511;28;20190;-76
2022/09/08 00:36:52;;;;;;;71.67;67.57;;;18.70;99.90;;;;;;5030560;28;20659;-76
2022/09/08 00:39:18;;;;;;;35.20;32.93;;;18.60;99.90;;;;;;5029937;28;20731;-76
2022/09/08 00:41:44;;;;;;;49.00;46.00;;;18.60;99.90;;;;;;5029769;28;20301;-75
2022/09/08 00:44:49;;;;;;;91.10;85.87;;;18.50;99.90;;;;;;5031130;28;20481;-75
2022/09/08 00:47:23;;;;;;;80.43;76.03;;;18.50;99.90;;;;;;5029360;28;20671;-75
2022/09/08 00:49:56;;;;;;;78.20;73.80;;;18.50;99.90;;;;;;5029895;28;20297;-76
2022/09/08 00:52:25;;;;;;;193.87;182.80;;;18.50;99.90;;;;;;5029864;28;20210;-75
2022/09/08 00:54:52;;;;;;;121.57;114.63;;;18.50;99.90;;;;;;5029990;28;20663;-76
2022/09/08 00:57:17;;;;;;;82.17;77.43;;;18.50;99.90;;;;;;5029923;28;20591;-76
2022/09/08 00:59:45;;;;;;;92.07;86.97;;;18.60;99.90;;;;;;5030840;28;20266;-76
2022/09/08 01:02:25;;;;;;;88.93;84.00;;;18.70;99.90;;;;;;5030973;28;20198;-76
2022/09/08 01:04:59;;;;;;;76.97;72.73;;;18.70;99.90;;;;;;5031122;28;20568;-76
2022/09/08 01:13:31;;;;;;;34.23;32.00;;;18.80;99.90;;;;;;5030573;28;20175;-76
2022/09/08 01:15:57;;;;;;;51.90;49.17;;;18.70;99.90;;;;;;5034855;28;20174;-76
2022/09/08 01:18:24;;;;;;;50.77;47.97;;;18.60;99.90;;;;;;5032780;28;20530;-76
2022/09/08 01:21:13;;;;;;;43.43;41.07;;;18.60;99.90;;;;;;5034707;28;20203;-76
2022/09/08 01:24:06;;;;;;;53.97;50.97;;;18.50;99.90;;;;;;5034347;28;20183;-76
2022/09/08 01:26:46;;;;;;;9.80;9.10;;;18.50;99.90;;;;;;5033512;28;20194;-76
2022/09/08 01:29:14;;;;;;;54.63;51.43;;;18.40;99.90;;;;;;5033170;28;20628;-76
2022/09/08 01:31:43;;;;;;;45.80;43.23;;;18.40;99.90;;;;;;5033214;28;20202;-75
2022/09/08 01:34:09;;;;;;;35.63;33.40;;;18.30;99.90;;;;;;5034838;28;20194;-75
2022/09/08 01:36:35;;;;;;;82.87;78.30;;;18.30;99.90;;;;;;5034470;28;20249;-75
2022/09/08 01:39:01;;;;;;;48.43;45.73;;;18.30;99.90;;;;;;5033360;28;20175;-74
2022/09/08 01:41:27;;;;;;;43.40;40.80;;;18.30;99.90;;;;;;5034253;28;20207;-75
2022/09/08 01:43:53;;;;;;;53.77;50.87;;;18.30;99.90;;;;;;5034240;28;20182;-75
2022/09/08 01:46:20;;;;;;;39.03;36.83;;;18.30;99.90;;;;;;5034375;28;20179;-75
2022/09/08 01:48:46;;;;;;;111.33;105.23;;;18.30;99.90;;;;;;5032307;28;20278;-75
2022/09/08 01:51:12;;;;;;;37.93;35.77;;;18.30;99.90;;;;;;5033511;28;20301;-75
2022/09/08 01:53:37;;;;;;;39.47;36.47;;;18.20;99.90;;;;;;5034055;28;20198;-75
2022/09/08 01:56:05;;;;;;;76.30;72.27;;;18.20;99.90;;;;;;5033011;28;20171;-74
2022/09/08 01:58:32;;;;;;;55.80;52.70;;;18.30;99.90;;;;;;5033302;28;20213;-75
2022/09/08 02:00:57;;;;;;;43.43;40.57;;;18.30;99.90;;;;;;5034273;28;20198;-75
2022/09/08 02:03:23;;;;;;;35.73;33.80;;;18.30;99.90;;;;;;5034372;28;20248;-74
2022/09/08 02:05:49;;;;;;;73.20;69.17;;;18.30;99.90;;;;;;5031849;28;20262;-75
2022/09/08 02:08:15;;;;;;;35.27;33.17;;;18.30;99.90;;;;;;5031798;28;20179;-75
2022/09/08 02:10:41;;;;;;;32.07;30.07;;;18.30;99.90;;;;;;5033778;28;20215;-75
2022/09/08 02:13:07;;;;;;;40.17;37.40;;;18.20;99.90;;;;;;5033881;28;20191;-75
2022/09/08 02:15:33;;;;;;;36.27;34.13;;;18.30;99.90;;;;;;5034331;28;20224;-75
2022/09/08 02:17:59;;;;;;;45.13;42.70;;;18.20;99.90;;;;;;5032934;28;20187;-76
2022/09/08 02:20:26;;;;;;;27.07;25.13;;;18.20;99.90;;;;;;5033239;28;20182;-76
2022/09/08 02:22:54;;;;;;;27.10;25.30;;;18.20;99.90;;;;;;5033880;28;20686;-76
2022/09/08 02:25:21;;;;;;;32.30;30.40;;;18.20;99.90;;;;;;5032799;28;20270;-76
2022/09/08 02:27:51;;;;;;;28.50;27.00;;;18.20;99.90;;;;;;5031594;28;20260;-76
2022/09/08 02:30:16;;;;;;;31.90;30.20;;;18.20;99.90;;;;;;5033417;28;20272;-76
2022/09/08 02:32:42;;;;;;;23.93;22.57;;;18.20;99.90;;;;;;5032228;28;20311;-76
2022/09/08 02:35:08;;;;;;;39.57;37.40;;;18.20;99.90;;;;;;5032085;28;20174;-75
2022/09/08 02:37:34;;;;;;;22.30;21.23;;;18.20;99.90;;;;;;5032740;28;20202;-75
2022/09/08 02:40:02;;;;;;;28.37;26.93;;;18.10;99.90;;;;;;5033641;28;20179;-75
2022/09/08 02:42:29;;;;;;;42.80;40.40;;;18.10;99.90;;;;;;5033093;28;20706;-75
2022/09/08 02:44:55;;;;;;;16.70;15.53;;;18.10;99.90;;;;;;5033307;28;20214;-75
2022/09/08 02:47:20;;;;;;;28.07;26.57;;;18.10;99.90;;;;;;5030967;28;20221;-76
2022/09/08 02:49:46;;;;;;;36.90;34.83;;;18.00;99.90;;;;;;5033093;28;20321;-76
2022/09/08 02:52:12;;;;;;;47.97;45.30;;;18.00;99.90;;;;;;5033091;28;20199;-76
2022/09/08 02:54:38;;;;;;;56.60;53.73;;;18.00;99.90;;;;;;5031849;28;20211;-76
2022/09/08 02:57:04;;;;;;;45.63;42.97;;;18.00;99.90;;;;;;5031156;28;20187;-76
2022/09/08 02:59:30;;;;;;;29.73;28.20;;;18.00;99.90;;;;;;5032858;28;20626;-76
2022/09/08 03:01:58;;;;;;;34.00;32.13;;;18.10;99.90;;;;;;5032375;28;20249;-76
2022/09/08 03:04:24;;;;;;;26.07;24.57;;;18.00;99.90;;;;;;5032405;28;20186;-76
2022/09/08 03:06:50;;;;;;;32.10;30.47;;;18.00;99.90;;;;;;5030780;28;20192;-76
2022/09/08 03:09:16;;;;;;;42.10;39.93;;;18.00;99.90;;;;;;5031287;28;20318;-75
2022/09/08 03:11:42;;;;;;;52.73;49.83;;;18.00;99.90;;;;;;5031388;28;20203;-76
2022/09/08 03:14:09;;;;;;;26.03;24.63;;;18.00;99.90;;;;;;5035794;28;20190;-76
2022/09/08 03:16:35;;;;;;;35.40;33.37;;;17.90;99.90;;;;;;5038322;28;20640;-76
2022/09/08 03:19:01;;;;;;;53.67;50.77;;;17.90;99.90;;;;;;5031347;28;20559;-76
2022/09/08 03:21:27;;;;;;;37.57;35.67;;;17.80;99.90;;;;;;5030811;28;20199;-76
2022/09/08 03:23:53;;;;;;;30.87;29.17;;;17.80;99.90;;;;;;5031443;28;20274;-76
2022/09/08 03:26:22;;;;;;;36.03;34.03;;;17.80;99.90;;;;;;5031561;28;20666;-76
2022/09/08 03:28:48;;;;;;;27.40;25.90;;;17.80;99.90;;;;;;5030961;28;20203;-76
2022/09/08 03:31:16;;;;;;;30.97;29.17;;;17.90;99.90;;;;;;5030324;28;20268;-77
2022/09/08 03:33:43;;;;;;;25.63;24.33;;;17.90;99.90;;;;;;5031884;28;20627;-75
2022/09/08 03:36:11;;;;;;;23.03;21.67;;;17.90;99.90;;;;;;5031792;28;20600;-76
2022/09/08 03:38:38;;;;;;;36.07;34.07;;;17.90;99.90;;;;;;5028428;28;20186;-75
2022/09/08 03:41:10;;;;;;;30.47;28.87;;;17.90;99.90;;;;;;5030552;28;20218;-75
2022/09/08 03:43:36;;;;;;;28.83;27.40;;;17.80;99.90;;;;;;5030189;28;20179;-75
2022/09/08 03:46:07;;;;;;;38.77;36.80;;;17.80;99.90;;;;;;5031432;28;20225;-75
2022/09/08 03:48:34;;;;;;;41.03;38.83;;;17.80;99.90;;;;;;5030562;28;20187;-74
2022/09/08 03:51:23;;;;;;;52.37;49.50;;;17.80;99.90;;;;;;5031560;28;20215;-75
2022/09/08 03:53:49;;;;;;;51.53;48.77;;;17.80;99.90;;;;;;5030528;28;20611;-77
2022/09/08 03:56:15;;;;;;;81.27;76.83;;;17.80;99.90;;;;;;5031767;28;20876;-75
2022/09/08 03:58:42;;;;;;;71.23;67.40;;;17.70;99.90;;;;;;5029857;28;20179;-74
2022/09/08 04:01:10;;;;;;;86.00;81.27;;;17.70;99.90;;;;;;5026421;28;20211;-74
2022/09/08 04:03:36;;;;;;;91.13;86.17;;;17.70;99.90;;;;;;5015836;28;20690;-74
2022/09/08 04:06:03;;;;;;;128.23;121.13;;;17.60;99.90;;;;;;5029845;28;20186;-77
2022/09/08 04:08:30;;;;;;;113.47;107.27;;;17.60;99.90;;;;;;5029829;28;20186;-75
2022/09/08 04:10:56;;;;;;;109.93;103.90;;;17.60;99.90;;;;;;5031111;28;20215;-75
2022/09/08 04:13:24;;;;;;;84.60;80.00;;;17.60;99.90;;;;;;5031379;28;20206;-75
2022/09/08 04:15:49;;;;;;;109.47;103.73;;;17.60;99.90;;;;;;5030440;28;20229;-75
2022/09/08 04:18:16;;;;;;;110.07;103.27;;;17.60;99.90;;;;;;5029390;28;20648;-75
2022/09/08 04:20:41;;;;;;;70.23;65.93;;;17.50;99.90;;;;;;5031032;28;20209;-75
2022/09/08 04:23:08;;;;;;;66.47;62.70;;;17.50;99.90;;;;;;5030409;28;20686;-75
2022/09/08 04:25:34;;;;;;;73.20;69.17;;;17.50;99.90;;;;;;5031066;28;20179;-75
2022/09/08 04:28:00;;;;;;;57.83;54.80;;;17.40;99.90;;;;;;5030374;28;20694;-75
2022/09/08 04:30:26;;;;;;;84.83;80.37;;;17.50;99.90;;;;;;5029129;28;20210;-75
2022/09/08 04:32:52;;;;;;;90.50;85.50;;;17.50;99.90;;;;;;5030362;28;20673;-75
2022/09/08 04:35:18;;;;;;;197.57;186.87;;;17.40;99.90;;;;;;5031902;28;20179;-75
2022/09/08 04:37:44;;;;;;;44.57;42.10;;;17.40;99.90;;;;;;5029159;28;20702;-75
2022/09/08 04:40:10;;;;;;;36.07;34.13;;;17.40;99.90;;;;;;5029538;28;20289;-75
2022/09/08 04:42:36;;;;;;;109.47;103.13;;;17.40;99.90;;;;;;5029748;28;20193;-74
2022/09/08 04:45:03;;;;;;;36.27;34.37;;;17.30;99.90;;;;;;5029116;28;20179;-75
2022/09/08 04:47:29;;;;;;;37.33;35.13;;;17.30;99.90;;;;;;5030133;28;20186;-75
2022/09/08 04:49:56;;;;;;;33.60;31.87;;;17.30;99.90;;;;;;5033285;28;20582;-75
2022/09/08 04:52:24;;;;;;;31.23;29.67;;;17.30;99.90;;;;;;5032688;28;20678;-75
2022/09/08 04:54:50;;;;;;;33.53;31.53;;;17.30;99.90;;;;;;5034184;28;20178;-75
2022/09/08 04:57:17;;;;;;;120.00;113.33;;;17.30;99.90;;;;;;5034656;28;20659;-75
2022/09/08 04:59:42;;;;;;;160.60;151.27;;;17.30;99.90;;;;;;5034245;28;20224;-75
2022/09/08 05:02:08;;;;;;;95.07;90.10;;;17.30;99.90;;;;;;5034720;28;20302;-70
2022/09/08 05:04:37;;;;;;;60.20;57.03;;;17.30;99.90;;;;;;5033785;28;20271;-71
2022/09/08 05:07:03;;;;;;;77.80;73.50;;;17.30;99.90;;;;;;5033154;28;20699;-71
2022/09/08 05:09:29;;;;;;;55.40;52.17;;;17.20;99.90;;;;;;5033451;28;20214;-72
2022/09/08 05:11:54;;;;;;;170.50;160.43;;;17.10;99.90;;;;;;5032853;28;20221;-72
2022/09/08 05:14:20;;;;;;;268.20;252.50;;;17.20;99.90;;;;;;5034753;28;20209;-70
2022/09/08 05:16:46;;;;;;;183.70;173.17;;;17.20;99.90;;;;;;5032718;28;20651;-70
2022/09/08 05:19:12;;;;;;;148.30;140.03;;;17.20;99.90;;;;;;5033423;28;20648;-70
2022/09/08 05:21:39;;;;;;;150.70;142.17;;;17.20;99.90;;;;;;5033420;28;20195;-70
2022/09/08 05:24:05;;;;;;;95.53;90.10;;;17.10;99.90;;;;;;5033422;28;20221;-70
2022/09/08 05:26:32;;;;;;;117.83;111.40;;;17.20;99.90;;;;;;5034622;28;20180;-71
2022/09/08 05:28:59;;;;;;;97.83;92.33;;;17.10;99.90;;;;;;5033651;28;20179;-70
2022/09/08 05:31:27;;;;;;;101.33;95.63;;;17.10;99.90;;;;;;5034317;28;20578;-71
2022/09/08 05:33:58;;;;;;;56.80;53.47;;;17.10;99.90;;;;;;5033200;28;20195;-71
2022/09/08 05:36:27;;;;;;;32.87;30.70;;;17.10;99.90;;;;;;5034626;28;20186;-71
2022/09/08 05:38:54;;;;;;;26.03;24.43;;;17.10;99.90;;;;;;5035062;28;20175;-71
2022/09/08 05:41:21;;;;;;;19.93;18.73;;;17.10;99.90;;;;;;5036190;28;20222;-71
2022/09/08 05:43:47;;;;;;;17.23;16.23;;;17.10;99.90;;;;;;5034529;28;20179;-71
2022/09/08 05:46:13;;;;;;;21.47;20.10;;;17.10;99.90;;;;;;5034409;28;20274;-71
2022/09/08 05:48:39;;;;;;;24.53;23.17;;;17.10;99.90;;;;;;5034140;28;20225;-71
2022/09/08 05:51:13;;;;;;;43.87;41.30;;;17.00;99.90;;;;;;5034035;28;20221;-71
2022/09/08 05:53:38;;;;;;;46.97;44.40;;;17.00;99.90;;;;;;5032830;28;20183;-71
2022/09/08 05:56:07;;;;;;;37.27;35.13;;;17.00;99.90;;;;;;5034088;28;20547;-71
2022/09/08 05:58:33;;;;;;;44.97;42.70;;;17.00;99.90;;;;;;5032230;28;20552;-71
2022/09/08 06:01:08;;;;;;;57.43;54.50;;;17.00;99.90;;;;;;5033760;28;20198;-71
2022/09/08 06:03:36;;;;;;;40.43;38.10;;;16.90;99.90;;;;;;5033893;28;20205;-72
2022/09/08 06:06:08;;;;;;;41.43;39.37;;;16.90;99.90;;;;;;5033995;28;20265;-72
2022/09/08 06:08:35;;;;;;;16.17;15.17;;;16.90;99.90;;;;;;5032001;28;20567;-72
2022/09/08 06:11:01;;;;;;;10.77;9.90;;;16.90;99.90;;;;;;5033811;28;20214;-71
2022/09/08 06:13:30;;;;;;;12.53;11.90;;;16.80;99.90;;;;;;5033541;28;20183;-71
2022/09/08 06:16:02;;;;;;;19.50;18.47;;;16.80;99.90;;;;;;5034421;28;20190;-72
2022/09/08 06:18:28;;;;;;;36.77;35.00;;;16.90;99.90;;;;;;5032792;28;20306;-71
2022/09/08 06:20:54;;;;;;;33.07;31.47;;;16.90;99.90;;;;;;5033583;28;20706;-72
2022/09/08 06:23:20;;;;;;;32.10;30.57;;;16.80;99.90;;;;;;5032201;28;20555;-71
2022/09/08 06:25:46;;;;;;;42.87;40.50;;;16.80;99.90;;;;;;5032525;28;20189;-72
2022/09/08 06:28:32;;;;;;;36.90;35.07;;;16.80;99.90;;;;;;5031246;28;20183;-72
2022/09/08 06:30:59;;;;;;;29.00;27.53;;;16.80;99.90;;;;;;5033150;28;20223;-72
2022/09/08 06:33:33;;;;;;;33.27;31.43;;;16.70;99.90;;;;;;5031932;28;20567;-72
2022/09/08 06:36:08;;;;;;;49.27;46.87;;;16.80;99.90;;;;;;5032057;28;20172;-72
2022/09/08 06:38:41;;;;;;;40.90;38.90;;;16.80;99.90;;;;;;5032354;28;20182;-72
2022/09/08 06:41:14;;;;;;;46.40;44.17;;;16.80;99.90;;;;;;5033222;28;20219;-71
2022/09/08 06:44:02;;;;;;;63.27;60.10;;;16.90;99.90;;;;;;5033054;28;20528;-71
2022/09/08 06:46:32;;;;;;;28.70;27.07;;;17.00;99.90;;;;;;5031979;28;20206;-71
2022/09/08 06:48:59;;;;;;;8.33;7.83;;;17.00;99.90;;;;;;5032195;28;20205;-71
2022/09/08 06:51:43;;;;;;;10.30;9.70;;;17.00;99.90;;;;;;5032825;28;20214;-72
2022/09/08 06:54:32;;;;;;;13.77;13.07;;;17.00;99.90;;;;;;5032988;28;20229;-72
2022/09/08 06:57:06;;;;;;;12.43;11.83;;;17.10;99.90;;;;;;5032192;28;20187;-73
2022/09/08 06:59:46;;;;;;;15.03;14.23;;;17.10;99.90;;;;;;5032633;28;20186;-72
2022/09/08 07:02:18;;;;;;;21.87;20.53;;;17.20;99.90;;;;;;5032640;28;20211;-72
2022/09/08 07:04:58;;;;;;;16.63;15.60;;;17.10;99.90;;;;;;5032686;28;20194;-71
2022/09/08 07:08:06;;;;;;;19.90;18.80;;;17.10;99.90;;;;;;5031781;28;20229;-72
2022/09/08 07:10:45;;;;;;;28.60;27.20;;;17.10;99.90;;;;;;5032408;28;20215;-72
2022/09/08 07:13:35;;;;;;;45.57;43.23;;;17.10;99.90;;;;;;5031947;28;20183;-72
2022/09/08 07:16:42;;;;;;;81.47;77.20;;;17.10;99.90;;;;;;5032456;28;20182;-72
2022/09/08 07:19:35;;;;;;;52.13;49.63;;;17.10;99.90;;;;;;5027245;28;20341;-72
2022/09/08 07:22:13;;;;;;;93.33;88.43;;;17.20;99.90;;;;;;5032193;28;20218;-72
2022/09/08 07:24:41;;;;;;;48.63;46.10;;;17.20;99.90;;;;;;5032376;28;20187;-72
2022/09/08 07:27:12;;;;;;;95.73;90.83;;;17.30;99.90;;;;;;5031843;28;20689;-72
2022/09/08 07:29:53;;;;;;;26.63;25.17;;;17.40;99.90;;;;;;5031034;28;20211;-71
2022/09/08 07:32:25;;;;;;;82.23;77.90;;;17.50;99.90;;;;;;5031938;28;20199;-72
2022/09/08 07:34:55;;;;;;;57.87;55.03;;;17.60;99.90;;;;;;5030974;28;20275;-72
2022/09/08 07:37:34;;;;;;;57.87;54.97;;;17.60;99.90;;;;;;5030314;28;20186;-72
2022/09/08 07:40:16;;;;;;;15.53;14.67;;;17.70;99.90;;;;;;5032056;28;20189;-72
2022/09/08 07:42:47;;;;;;;8.03;7.43;;;17.70;99.90;;;;;;5031976;28;20187;-72
2022/09/08 07:45:13;;;;;;;9.90;9.20;;;17.70;99.90;;;;;;5032086;28;20217;-72
2022/09/08 07:48:06;;;;;;;9.30;8.77;;;17.80;99.90;;;;;;5030906;28;20179;-72
2022/09/08 07:50:56;;;;;;;8.87;8.33;;;17.90;99.90;;;;;;5030338;28;20229;-72
2022/09/08 07:53:49;;;;;;;39.20;37.23;;;18.00;99.90;;;;;;5031498;28;20175;-72
2022/09/08 07:56:23;;;;;;;58.30;55.27;;;18.00;99.90;;;;;;5031955;28;20713;-72
2022/09/08 07:59:05;;;;;;;35.53;33.77;;;18.00;99.90;;;;;;5030672;28;20277;-72
2022/09/08 08:01:46;;;;;;;43.97;41.73;;;18.10;99.90;;;;;;5031402;28;20298;-72
2022/09/08 08:05:01;;;;;;;58.30;55.40;;;18.40;99.90;;;;;;5031954;28;20209;-72
2022/09/08 08:07:47;;;;;;;102.67;97.27;;;18.70;99.90;;;;;;5029430;28;20182;-72
2022/09/08 08:10:41;;;;;;;55.57;52.77;;;18.80;99.90;;;;;;5031481;28;20222;-72
2022/09/08 08:13:19;;;;;;;130.10;123.47;;;19.00;99.90;;;;;;5031418;28;20174;-72
2022/09/08 08:15:47;;;;;;;145.90;138.10;;;19.30;99.90;;;;;;5031910;28;20265;-72
2022/09/08 08:18:12;;;;;;;10.50;10.03;;;19.80;99.90;;;;;;5031018;28;20179;-72
2022/09/08 08:20:45;;;;;;;7.30;6.90;;;20.30;99.90;;;;;;5031390;28;20202;-72
2022/09/08 08:23:25;;;;;;;34.43;32.77;;;20.50;99.90;;;;;;5030907;28;20652;-72
2022/09/08 08:26:25;;;;;;;24.35;23.25;;;20.50;99.90;;;;;;5030989;28;20261;-72
2022/09/08 08:29:06;;;;;;;31.60;30.13;;;20.40;99.90;;;;;;5030312;28;20203;-72
2022/09/08 08:31:47;;;;;;;21.23;20.27;;;20.40;99.90;;;;;;5029827;28;20801;-73
2022/09/08 08:34:35;;;;;;;34.13;32.23;;;20.40;99.90;;;;;;5031560;28;20214;-73
2022/09/08 08:37:04;;;;;;;26.00;24.67;;;20.80;99.90;;;;;;5030388;28;20175;-73
2022/09/08 08:39:34;;;;;;;29.48;28.05;;;21.50;99.90;;;;;;5030811;28;20179;-73
2022/09/08 08:42:09;;;;;;;36.50;34.67;;;21.50;99.90;;;;;;5030768;28;20584;-73
2022/09/08 08:44:41;;;;;;;29.50;28.15;;;21.60;99.90;;;;;;5031067;28;20186;-72
2022/09/08 08:47:41;;;;;;;32.90;31.30;;;22.00;99.90;;;;;;5030767;28;20190;-73
2022/09/08 08:50:45;;;;;;;12.95;12.27;;;22.40;99.90;;;;;;5031295;28;20210;-73
2022/09/08 08:53:50;;;;;;;10.95;10.13;;;22.90;99.90;;;;;;5030855;28;20183;-71
2022/09/08 08:56:23;;;;;;;4.70;4.40;;;22.90;99.90;;;;;;5030946;28;20179;-71
2022/09/08 08:59:08;;;;;;;3.25;3.15;;;23.10;99.90;;;;;;5030814;28;20223;-71
2022/09/08 09:01:57;;;;;;;3.97;3.80;;;22.50;99.90;;;;;;5030872;28;20245;-71
2022/09/08 09:04:44;;;;;;;3.42;3.22;;;21.80;99.90;;;;;;5025205;28;20194;-71
2022/09/08 09:07:33;;;;;;;3.13;2.92;;;21.60;99.90;;;;;;5030226;28;20179;-71
2022/09/08 09:10:26;;;;;;;3.28;3.17;;;21.70;99.90;;;;;;5030818;28;20245;-73
2022/09/08 09:13:04;;;;;;;4.25;4.05;;;21.70;99.90;;;;;;5030783;28;20186;-70
2022/09/08 09:15:36;;;;;;;4.82;4.38;;;21.50;99.90;;;;;;5030983;28;20186;-71
2022/09/08 09:18:40;;;;;;;3.85;3.65;;;21.40;99.90;;;;;;5030101;28;20194;-73
2022/09/08 09:21:15;;;;;;;3.88;3.72;;;21.30;99.90;;;;;;5029451;28;20575;-72
2022/09/08 09:24:04;;;;;;;3.20;3.00;;;21.10;99.90;;;;;;5030840;28;20187;-73
2022/09/08 09:26:35;;;;;;;4.85;4.55;;;20.80;99.90;;;;;;5030751;28;20187;-72
2022/09/08 09:29:24;;;;;;;5.55;5.35;;;20.70;99.90;;;;;;5029955;28;20190;-72
2022/09/08 09:32:27;;;;;;;4.93;4.63;;;20.50;99.90;;;;;;5029342;28;20307;-72
2022/09/08 09:35:00;;;;;;;5.23;5.03;;;20.20;99.90;;;;;;5031185;28;20682;-72
2022/09/08 09:37:41;;;;;;;8.50;8.20;;;20.00;99.90;;;;;;5033715;28;20623;-72
2022/09/08 09:40:36;;;;;;;12.50;11.90;;;20.10;99.90;;;;;;5034495;28;20193;-72
2022/09/08 09:43:34;;;;;;;10.60;10.03;;;20.30;99.90;;;;;;5034327;28;20221;-72
2022/09/08 09:46:18;;;;;;;4.10;3.80;;;20.70;99.90;;;;;;5032979;28;20194;-72
2022/09/08 09:49:10;;;;;;;3.77;3.50;;;21.50;99.90;;;;;;5033173;28;20183;-73
2022/09/08 09:51:49;;;;;;;3.65;3.55;;;22.10;99.90;;;;;;5017991;28;20586;-73
2022/09/08 09:54:33;;;;;;;4.88;4.53;;;22.20;99.90;;;;;;5034086;28;20624;-72
2022/09/08 09:57:22;;;;;;;67.22;64.05;;;22.40;99.90;;;;;;5031976;28;20183;-73
2022/09/08 10:00:12;;;;;;;63.40;60.40;;;22.30;99.90;;;;;;5033911;28;20179;-72
2022/09/08 10:02:50;;;;;;;16.17;15.40;;;21.90;99.90;;;;;;5033736;28;20209;-72
2022/09/08 10:05:45;;;;;;;7.18;6.72;;;21.40;99.90;;;;;;5033766;28;20186;-72
2022/09/08 10:08:46;;;;;;;5.30;5.00;;;20.30;99.90;;;;;;5029035;28;20660;-72
2022/09/08 10:11:30;;;;;;;12.73;12.13;;;19.40;99.90;;;;;;5033590;28;20225;-72
2022/09/08 10:14:15;;;;;;;186.23;177.03;;;18.90;99.90;;;;;;5032397;28;20763;-72
2022/09/08 10:16:51;;;;;;;469.67;443.60;;;18.80;99.90;;;;;;5032141;28;20183;-72
2022/09/08 10:19:57;;;;;;;108.73;103.37;;;18.70;99.90;;;;;;5033734;28;20206;-72
2022/09/08 10:22:36;;;;;;;33.73;31.87;;;18.70;99.90;;;;;;5032259;28;20222;-72
2022/09/08 10:25:21;;;;;;;52.60;49.67;;;18.80;99.90;;;;;;5032409;28;20659;-72
2022/09/08 10:28:29;;;;;;;41.47;39.50;;;19.30;99.90;;;;;;5032487;28;20179;-72
2022/09/08 10:31:12;;;;;;;37.00;35.23;;;20.50;99.90;;;;;;5032000;28;20288;-72
2022/09/08 10:34:16;;;;;;;316.30;300.30;;;21.80;99.90;;;;;;5033298;28;20225;-73
2022/09/08 10:36:57;;;;;;;27.95;26.55;;;22.50;99.90;;;;;;5032957;28;20308;-72
2022/09/08 10:39:45;;;;;;;9.93;9.38;;;23.10;99.90;;;;;;5032963;28;20552;-73
2022/09/08 10:42:35;;;;;;;5.30;5.00;;;24.00;99.90;;;;;;5045903;23;20235;-71
2022/09/08 10:45:21;;;;;;;84.85;80.85;;;24.60;99.90;;;;;;5013482;28;20180;-71
2022/09/08 10:48:26;;;;;;;50.97;48.50;;;25.60;99.90;;;;;;5026119;28;20380;-70
2022/09/08 10:51:07;;;;;;;10.98;10.40;;;26.70;99.90;;;;;;5013108;28;20215;-71
2022/09/08 10:53:36;;;;;;;10.52;10.02;;;27.30;99.90;;;;;;5013052;28;20660;-71
2022/09/08 10:56:12;;;;;;;16.65;15.55;;;27.10;99.90;;;;;;5013057;28;20171;-71
2022/09/08 10:58:44;;;;;;;13.00;12.32;;;26.10;99.90;;;;;;5011255;28;20190;-70
2022/09/08 11:01:50;;;;;;;20.33;19.27;;;24.70;99.90;;;;;;5012894;28;20183;-71
2022/09/08 11:04:40;;;;;;;93.10;88.78;;;23.50;99.90;;;;;;5012922;28;20191;-70
2022/09/08 11:07:32;;;;;;;87.95;83.85;;;22.70;99.90;;;;;;5012218;28;20215;-70
2022/09/08 11:10:42;;;;;;;114.22;108.85;;;22.30;99.90;;;;;;5012890;28;20632;-70
2022/09/08 11:13:27;;;;;;;126.32;120.53;;;22.30;99.90;;;;;;5006778;28;20215;-70
2022/09/08 11:16:30;;;;;;;119.25;113.80;;;22.50;99.90;;;;;;5012638;28;20202;-70
2022/09/08 11:18:55;;;;;;;119.40;113.97;;;23.00;99.90;;;;;;5011997;28;20183;-71
2022/09/08 11:21:28;;;;;;;92.55;87.88;;;23.00;99.90;;;;;;5014963;28;20230;-70
2022/09/08 11:24:01;;;;;;;113.65;108.45;;;23.00;99.90;;;;;;5012944;28;20199;-70
2022/09/08 11:26:42;;;;;;;104.80;99.88;;;22.80;99.90;;;;;;5012558;28;20183;-70
2022/09/08 11:29:16;;;;;;;125.38;119.47;;;22.40;99.90;;;;;;5010565;28;20274;-70
2022/09/08 11:32:22;;;;;;;122.97;117.10;;;22.20;99.90;;;;;;5011581;28;20226;-70
2022/09/08 11:35:16;;;;;;;124.88;119.03;;;22.40;99.90;;;;;;5004709;28;20191;-70
2022/09/08 11:37:42;;;;;;;105.18;100.15;;;23.00;99.90;;;;;;5011417;28;20290;-71
2022/09/08 11:40:35;;;;;;;104.28;99.28;;;23.50;99.90;;;;;;5012237;28;20715;-70
2022/09/08 11:43:19;;;;;;;75.75;72.15;;;23.70;99.90;;;;;;5010888;28;20246;-70
2022/09/08 11:46:22;;;;;;;115.75;110.50;;;23.20;99.90;;;;;;5011127;28;20187;-70
2022/09/08 11:49:04;;;;;;;143.68;137.07;;;22.70;99.90;;;;;;5011307;28;20675;-70
2022/09/08 11:52:05;;;;;;;127.97;122.00;;;22.30;99.90;;;;;;5012037;28;20211;-70
2022/09/08 11:54:33;;;;;;;127.28;121.38;;;22.20;99.90;;;;;;5012051;28;20218;-70
2022/09/08 11:57:17;;;;;;;122.82;117.28;;;22.30;99.90;;;;;;5011103;28;20180;-70
2022/09/08 11:59:49;;;;;;;138.35;132.02;;;22.80;99.90;;;;;;5011938;28;20210;-70
2022/09/08 12:02:47;;;;;;;128.32;122.10;;;22.70;99.90;;;;;;5011846;28;20203;-72
2022/09/08 12:05:40;;;;;;;127.30;121.40;;;22.30;99.90;;;;;;5011812;28;20180;-72
2022/09/08 12:08:26;;;;;;;129.50;123.47;;;22.00;99.90;;;;;;5010920;28;20186;-70
2022/09/08 12:10:55;;;;;;;99.85;94.70;;;23.50;99.90;;;;;;5011669;28;20242;-70
2022/09/08 12:13:33;;;;;;;14.82;14.18;;;25.50;99.90;;;;;;5011964;28;20632;-70
2022/09/08 12:16:03;;;;;;;12.30;11.63;;;27.00;99.90;;;;;;5011628;28;20184;-70
2022/09/08 12:18:31;;;;;;;4.35;3.95;;;27.90;99.90;;;;;;5009601;28;20218;-70
2022/09/08 12:21:06;;;;;;;3.00;2.90;;;27.00;99.90;;;;;;5011687;28;20533;-70
2022/09/08 12:23:48;;;;;;;5.20;4.93;;;27.00;99.90;;;;;;5011480;28;20294;-70
2022/09/08 12:26:33;;;;;;;4.60;4.40;;;28.30;99.90;;;;;;5011501;28;20190;-69
2022/09/08 12:29:31;;;;;;;4.40;4.05;;;28.00;99.90;;;;;;5010868;28;20184;-69
2022/09/08 12:32:03;;;;;;;3.85;3.72;;;28.30;99.90;;;;;;5011263;28;20203;-69
2022/09/08 12:35:00;;;;;;;5.32;5.13;;;29.90;97.70;;;;;;5011820;28;20180;-70
2022/09/08 12:37:38;;;;;;;5.32;5.05;;;30.20;93.40;;;;;;5010514;28;20202;-70
2022/09/08 12:40:22;;;;;;;16.77;15.65;;;30.70;92.20;;;;;;5011270;28;20195;-70
2022/09/08 12:43:21;;;;;;;40.10;38.22;;;29.70;91.90;;;;;;5010993;28;20218;-70
2022/09/08 12:45:47;;;;;;;11.00;10.40;;;28.80;93.10;;;;;;5011401;28;20679;-70
2022/09/08 12:48:36;;;;;;;4.03;3.58;;;27.20;94.70;;;;;;5009427;28;20175;-70
2022/09/08 12:51:43;;;;;;;5.20;5.00;;;26.60;97.00;;;;;;5011151;28;20212;-70
2022/09/08 12:54:25;;;;;;;3.67;3.58;;;25.40;99.90;;;;;;4973503;28;20180;-70
2022/09/08 12:57:07;;;;;;;4.35;3.97;;;24.80;99.90;;;;;;4988783;28;20231;-70
2022/09/08 12:59:42;;;;;;;3.15;2.95;;;25.40;99.90;;;;;;4998962;28;20281;-70
2022/09/08 13:02:14;;;;;;;4.70;4.30;;;25.30;99.90;;;;;;5009971;28;20257;-70
2022/09/08 13:05:05;;;;;;;3.65;3.50;;;26.10;98.40;;;;;;5011698;28;20298;-70
2022/09/08 13:07:40;;;;;;;6.28;4.90;;;26.90;96.70;;;;;;5010396;28;20553;-70
2022/09/08 13:10:09;;;;;;;6.30;5.93;;;27.00;97.20;;;;;;5011910;28;20681;-70
2022/09/08 13:12:57;;;;;;;3.22;3.03;;;27.50;97.60;;;;;;5014801;28;20196;-70
2022/09/08 13:15:30;;;;;;;3.00;2.80;;;27.90;94.10;;;;;;5015064;28;20554;-71